sensor_id;sensor_type;location;lat;lon;timestamp;P1;durP1;ratioP1;P2;durP2;ratioP2
55224;SDS011;41091;49.400;8.684;2023-05-10T00:00:53;0.40;;;0.40;;
55224;SDS011;41091;49.400;8.684;2023-05-10T00:03:18;0.85;;;0.85;;
55224;SDS011;41091;49.400;8.684;2023-05-10T00:05:46;0.60;;;0.60;;
55224;SDS011;41091;49.400;8.684;2023-05-10T00:08:11;0.80;;;0.52;;
55224;SDS011;41091;49.400;8.684;2023-05-10T00:10:37;1.70;;;0.60;;
55224;SDS011;41091;49.400;8.684;2023-05-10T00:13:05;0.85;;;0.50;;
55224;SDS011;41091;49.400;8.684;2023-05-10T00:15:33;0.70;;;0.70;;
55224;SDS011;41091;49.400;8.684;2023-05-10T00:20:29;0.52;;;0.52;;
55224;SDS011;41091;49.400;8.684;2023-05-10T00:22:56;0.85;;;0.50;;
55224;SDS011;41091;49.400;8.684;2023-05-10T00:25:21;3.13;;;0.50;;
55224;SDS011;41091;49.400;8.684;2023-05-10T00:27:47;2.15;;;0.50;;
55224;SDS011;41091;49.400;8.684;2023-05-10T00:30:13;0.57;;;0.40;;
55224;SDS011;41091;49.400;8.684;2023-05-10T00:32:38;0.40;;;0.40;;
55224;SDS011;41091;49.400;8.684;2023-05-10T00:35:03;0.38;;;0.38;;
55224;SDS011;41091;49.400;8.684;2023-05-10T00:37:31;1.75;;;0.60;;
55224;SDS011;41091;49.400;8.684;2023-05-10T00:39:59;0.40;;;0.40;;
55224;SDS011;41091;49.400;8.684;2023-05-10T00:42:24;0.85;;;0.40;;
55224;SDS011;41091;49.400;8.684;2023-05-10T00:44:50;0.30;;;0.30;;
55224;SDS011;41091;49.400;8.684;2023-05-10T00:47:18;0.50;;;0.50;;
55224;SDS011;41091;49.400;8.684;2023-05-10T00:49:43;0.47;;;0.47;;
55224;SDS011;41091;49.400;8.684;2023-05-10T00:52:14;0.55;;;0.55;;
55224;SDS011;41091;49.400;8.684;2023-05-10T00:54:39;0.30;;;0.30;;
55224;SDS011;41091;49.400;8.684;2023-05-10T00:57:04;0.65;;;0.50;;
55224;SDS011;41091;49.400;8.684;2023-05-10T00:59:30;7.78;;;0.43;;
55224;SDS011;41091;49.400;8.684;2023-05-10T01:01:55;0.30;;;0.28;;
55224;SDS011;41091;49.400;8.684;2023-05-10T01:04:23;0.77;;;0.40;;
55224;SDS011;41091;49.400;8.684;2023-05-10T01:06:50;0.30;;;0.30;;
55224;SDS011;41091;49.400;8.684;2023-05-10T01:09:16;3.72;;;0.32;;
55224;SDS011;41091;49.400;8.684;2023-05-10T01:12:01;1.75;;;0.40;;
55224;SDS011;41091;49.400;8.684;2023-05-10T01:14:31;1.38;;;0.60;;
55224;SDS011;41091;49.400;8.684;2023-05-10T01:16:57;0.40;;;0.40;;
55224;SDS011;41091;49.400;8.684;2023-05-10T01:19:23;0.57;;;0.40;;
55224;SDS011;41091;49.400;8.684;2023-05-10T01:24:37;0.30;;;0.30;;
55224;SDS011;41091;49.400;8.684;2023-05-10T01:35:32;2.05;;;0.40;;
55224;SDS011;41091;49.400;8.684;2023-05-10T01:40:56;1.52;;;0.43;;
55224;SDS011;41091;49.400;8.684;2023-05-10T01:43:30;1.25;;;0.57;;
55224;SDS011;41091;49.400;8.684;2023-05-10T01:48:44;0.50;;;0.50;;
55224;SDS011;41091;49.400;8.684;2023-05-10T01:51:18;0.97;;;0.40;;
55224;SDS011;41091;49.400;8.684;2023-05-10T01:53:46;0.57;;;0.57;;
55224;SDS011;41091;49.400;8.684;2023-05-10T01:56:12;1.48;;;0.50;;
55224;SDS011;41091;49.400;8.684;2023-05-10T01:58:39;1.33;;;0.55;;
55224;SDS011;41091;49.400;8.684;2023-05-10T02:01:05;6.38;;;0.50;;
55224;SDS011;41091;49.400;8.684;2023-05-10T02:03:34;0.60;;;0.57;;
55224;SDS011;41091;49.400;8.684;2023-05-10T02:06:03;2.55;;;1.20;;
55224;SDS011;41091;49.400;8.684;2023-05-10T02:08:28;2.55;;;0.50;;
55224;SDS011;41091;49.400;8.684;2023-05-10T02:10:57;0.60;;;0.60;;
55224;SDS011;41091;49.400;8.684;2023-05-10T02:13:24;0.50;;;0.50;;
55224;SDS011;41091;49.400;8.684;2023-05-10T02:15:51;1.40;;;0.70;;
55224;SDS011;41091;49.400;8.684;2023-05-10T02:18:22;2.40;;;0.60;;
55224;SDS011;41091;49.400;8.684;2023-05-10T02:20:51;1.63;;;0.53;;
55224;SDS011;41091;49.400;8.684;2023-05-10T02:23:17;0.47;;;0.47;;
55224;SDS011;41091;49.400;8.684;2023-05-10T02:25:46;0.57;;;0.50;;
55224;SDS011;41091;49.400;8.684;2023-05-10T02:28:15;0.55;;;0.50;;
55224;SDS011;41091;49.400;8.684;2023-05-10T02:30:43;1.35;;;0.60;;
55224;SDS011;41091;49.400;8.684;2023-05-10T02:33:10;0.60;;;0.60;;
55224;SDS011;41091;49.400;8.684;2023-05-10T02:35:36;2.08;;;0.50;;
55224;SDS011;41091;49.400;8.684;2023-05-10T02:38:03;5.47;;;0.90;;
55224;SDS011;41091;49.400;8.684;2023-05-10T02:40:29;0.60;;;0.60;;
55224;SDS011;41091;49.400;8.684;2023-05-10T02:42:56;2.67;;;0.90;;
55224;SDS011;41091;49.400;8.684;2023-05-10T02:45:26;0.43;;;0.43;;
55224;SDS011;41091;49.400;8.684;2023-05-10T02:47:53;2.28;;;0.50;;
55224;SDS011;41091;49.400;8.684;2023-05-10T02:50:23;1.08;;;0.90;;
55224;SDS011;41091;49.400;8.684;2023-05-10T02:52:51;0.50;;;0.50;;
55224;SDS011;41091;49.400;8.684;2023-05-10T02:55:17;0.70;;;0.70;;
55224;SDS011;41091;49.400;8.684;2023-05-10T03:00:36;2.38;;;1.25;;
55224;SDS011;41091;49.400;8.684;2023-05-10T03:03:01;1.35;;;0.43;;
55224;SDS011;41091;49.400;8.684;2023-05-10T03:05:29;0.50;;;0.50;;
55224;SDS011;41091;49.400;8.684;2023-05-10T03:07:56;6.90;;;0.75;;
55224;SDS011;41091;49.400;8.684;2023-05-10T03:10:26;0.60;;;0.60;;
55224;SDS011;41091;49.400;8.684;2023-05-10T03:15:36;0.73;;;0.60;;
55224;SDS011;41091;49.400;8.684;2023-05-10T03:18:07;1.73;;;0.95;;
55224;SDS011;41091;49.400;8.684;2023-05-10T03:23:18;0.68;;;0.68;;
55224;SDS011;41091;49.400;8.684;2023-05-10T03:25:46;0.88;;;0.88;;
55224;SDS011;41091;49.400;8.684;2023-05-10T03:28:16;4.68;;;1.05;;
55224;SDS011;41091;49.400;8.684;2023-05-10T03:30:42;0.80;;;0.80;;
55224;SDS011;41091;49.400;8.684;2023-05-10T03:33:11;6.70;;;1.00;;
55224;SDS011;41091;49.400;8.684;2023-05-10T03:35:39;0.93;;;0.93;;
55224;SDS011;41091;49.400;8.684;2023-05-10T03:38:04;2.05;;;0.90;;
55224;SDS011;41091;49.400;8.684;2023-05-10T03:40:32;3.00;;;1.23;;
55224;SDS011;41091;49.400;8.684;2023-05-10T03:42:58;0.90;;;0.90;;
55224;SDS011;41091;49.400;8.684;2023-05-10T03:45:24;1.13;;;1.13;;
55224;SDS011;41091;49.400;8.684;2023-05-10T03:47:49;1.38;;;1.35;;
55224;SDS011;41091;49.400;8.684;2023-05-10T03:50:17;3.60;;;1.55;;
55224;SDS011;41091;49.400;8.684;2023-05-10T03:52:43;4.60;;;1.20;;
55224;SDS011;41091;49.400;8.684;2023-05-10T03:55:11;4.22;;;0.90;;
55224;SDS011;41091;49.400;8.684;2023-05-10T04:00:07;1.20;;;1.20;;
55224;SDS011;41091;49.400;8.684;2023-05-10T04:02:35;1.33;;;1.33;;
55224;SDS011;41091;49.400;8.684;2023-05-10T04:05:01;1.25;;;1.25;;
55224;SDS011;41091;49.400;8.684;2023-05-10T04:07:26;1.20;;;1.20;;
55224;SDS011;41091;49.400;8.684;2023-05-10T04:09:52;1.20;;;1.10;;
55224;SDS011;41091;49.400;8.684;2023-05-10T04:12:17;1.27;;;1.17;;
55224;SDS011;41091;49.400;8.684;2023-05-10T04:14:42;1.38;;;1.30;;
55224;SDS011;41091;49.400;8.684;2023-05-10T04:17:08;2.97;;;1.48;;
55224;SDS011;41091;49.400;8.684;2023-05-10T04:19:33;1.40;;;1.30;;
55224;SDS011;41091;49.400;8.684;2023-05-10T04:22:01;1.20;;;1.20;;
55224;SDS011;41091;49.400;8.684;2023-05-10T04:24:27;3.55;;;1.67;;
55224;SDS011;41091;49.400;8.684;2023-05-10T04:26:53;5.00;;;1.88;;
55224;SDS011;41091;49.400;8.684;2023-05-10T04:29:19;1.63;;;1.15;;
55224;SDS011;41091;49.400;8.684;2023-05-10T04:31:44;3.75;;;1.70;;
55224;SDS011;41091;49.400;8.684;2023-05-10T04:34:09;3.83;;;1.50;;
55224;SDS011;41091;49.400;8.684;2023-05-10T04:36:35;2.35;;;2.22;;
55224;SDS011;41091;49.400;8.684;2023-05-10T04:39:02;6.10;;;1.58;;
55224;SDS011;41091;49.400;8.684;2023-05-10T04:41:32;4.75;;;1.77;;
55224;SDS011;41091;49.400;8.684;2023-05-10T04:43:57;1.73;;;1.63;;
55224;SDS011;41091;49.400;8.684;2023-05-10T04:46:22;2.72;;;2.53;;
55224;SDS011;41091;49.400;8.684;2023-05-10T04:48:48;2.33;;;2.03;;
55224;SDS011;41091;49.400;8.684;2023-05-10T04:51:16;1.90;;;1.80;;
55224;SDS011;41091;49.400;8.684;2023-05-10T04:53:41;4.70;;;2.17;;
55224;SDS011;41091;49.400;8.684;2023-05-10T04:56:10;2.53;;;2.40;;
55224;SDS011;41091;49.400;8.684;2023-05-10T04:58:38;2.30;;;2.10;;
55224;SDS011;41091;49.400;8.684;2023-05-10T05:01:06;5.22;;;2.25;;
55224;SDS011;41091;49.400;8.684;2023-05-10T05:03:33;6.13;;;2.30;;
55224;SDS011;41091;49.400;8.684;2023-05-10T05:06:00;2.08;;;1.98;;
55224;SDS011;41091;49.400;8.684;2023-05-10T05:08:26;1.63;;;1.63;;
55224;SDS011;41091;49.400;8.684;2023-05-10T05:10:51;3.42;;;1.70;;
55224;SDS011;41091;49.400;8.684;2023-05-10T05:13:19;1.85;;;1.70;;
55224;SDS011;41091;49.400;8.684;2023-05-10T05:15:45;4.15;;;1.80;;
55224;SDS011;41091;49.400;8.684;2023-05-10T05:18:11;2.20;;;2.00;;
55224;SDS011;41091;49.400;8.684;2023-05-10T05:20:38;5.03;;;2.08;;
55224;SDS011;41091;49.400;8.684;2023-05-10T05:23:04;1.88;;;1.77;;
55224;SDS011;41091;49.400;8.684;2023-05-10T05:25:29;1.45;;;1.42;;
55224;SDS011;41091;49.400;8.684;2023-05-10T05:27:54;2.60;;;2.33;;
55224;SDS011;41091;49.400;8.684;2023-05-10T05:30:20;3.83;;;2.50;;
55224;SDS011;41091;49.400;8.684;2023-05-10T05:32:45;3.97;;;1.90;;
55224;SDS011;41091;49.400;8.684;2023-05-10T05:35:14;4.07;;;1.50;;
55224;SDS011;41091;49.400;8.684;2023-05-10T05:37:39;3.60;;;2.20;;
55224;SDS011;41091;49.400;8.684;2023-05-10T05:40:07;6.70;;;2.47;;
55224;SDS011;41091;49.400;8.684;2023-05-10T05:42:33;2.83;;;2.30;;
55224;SDS011;41091;49.400;8.684;2023-05-10T05:44:58;3.00;;;2.40;;
55224;SDS011;41091;49.400;8.684;2023-05-10T05:47:24;2.17;;;1.98;;
55224;SDS011;41091;49.400;8.684;2023-05-10T05:49:49;2.30;;;2.20;;
55224;SDS011;41091;49.400;8.684;2023-05-10T05:52:14;2.67;;;2.42;;
55224;SDS011;41091;49.400;8.684;2023-05-10T05:54:40;2.35;;;2.25;;
55224;SDS011;41091;49.400;8.684;2023-05-10T05:57:05;1.85;;;1.73;;
55224;SDS011;41091;49.400;8.684;2023-05-10T05:59:30;2.25;;;2.15;;
55224;SDS011;41091;49.400;8.684;2023-05-10T06:01:58;3.78;;;1.95;;
55224;SDS011;41091;49.400;8.684;2023-05-10T06:04:23;2.38;;;2.28;;
55224;SDS011;41091;49.400;8.684;2023-05-10T06:06:49;2.60;;;2.40;;
55224;SDS011;41091;49.400;8.684;2023-05-10T06:09:14;2.50;;;2.40;;
55224;SDS011;41091;49.400;8.684;2023-05-10T06:11:39;2.30;;;2.10;;
55224;SDS011;41091;49.400;8.684;2023-05-10T06:14:05;4.22;;;2.22;;
55224;SDS011;41091;49.400;8.684;2023-05-10T06:16:32;6.07;;;2.13;;
55224;SDS011;41091;49.400;8.684;2023-05-10T06:18:57;2.50;;;2.30;;
55224;SDS011;41091;49.400;8.684;2023-05-10T06:21:25;3.22;;;3.03;;
55224;SDS011;41091;49.400;8.684;2023-05-10T06:23:52;4.93;;;2.75;;
55224;SDS011;41091;49.400;8.684;2023-05-10T06:26:18;2.85;;;2.65;;
55224;SDS011;41091;49.400;8.684;2023-05-10T06:28:43;10.15;;;3.35;;
55224;SDS011;41091;49.400;8.684;2023-05-10T06:31:08;3.40;;;2.30;;
55224;SDS011;41091;49.400;8.684;2023-05-10T06:33:36;3.05;;;2.85;;
55224;SDS011;41091;49.400;8.684;2023-05-10T06:36:04;3.72;;;3.00;;
55224;SDS011;41091;49.400;8.684;2023-05-10T06:38:31;18.58;;;11.73;;
55224;SDS011;41091;49.400;8.684;2023-05-10T06:40:57;16.25;;;8.35;;
55224;SDS011;41091;49.400;8.684;2023-05-10T06:43:22;4.43;;;3.47;;
55224;SDS011;41091;49.400;8.684;2023-05-10T06:45:50;8.05;;;2.88;;
55224;SDS011;41091;49.400;8.684;2023-05-10T06:48:17;2.72;;;2.50;;
55224;SDS011;41091;49.400;8.684;2023-05-10T06:50:43;3.08;;;2.97;;
55224;SDS011;41091;49.400;8.684;2023-05-10T06:53:09;2.70;;;2.58;;
55224;SDS011;41091;49.400;8.684;2023-05-10T06:55:34;4.15;;;3.05;;
55224;SDS011;41091;49.400;8.684;2023-05-10T06:58:02;2.45;;;2.25;;
55224;SDS011;41091;49.400;8.684;2023-05-10T07:00:30;5.45;;;2.72;;
55224;SDS011;41091;49.400;8.684;2023-05-10T07:02:55;9.63;;;2.60;;
55224;SDS011;41091;49.400;8.684;2023-05-10T07:05:20;2.85;;;2.75;;
55224;SDS011;41091;49.400;8.684;2023-05-10T07:07:46;3.38;;;2.83;;
55224;SDS011;41091;49.400;8.684;2023-05-10T07:10:14;2.58;;;2.47;;
55224;SDS011;41091;49.400;8.684;2023-05-10T07:12:42;2.80;;;2.67;;
55224;SDS011;41091;49.400;8.684;2023-05-10T07:15:08;3.03;;;2.83;;
55224;SDS011;41091;49.400;8.684;2023-05-10T07:17:36;2.28;;;2.20;;
55224;SDS011;41091;49.400;8.684;2023-05-10T07:20:03;3.85;;;2.42;;
55224;SDS011;41091;49.400;8.684;2023-05-10T07:22:29;5.35;;;2.45;;
55224;SDS011;41091;49.400;8.684;2023-05-10T07:24:54;2.50;;;2.40;;
55224;SDS011;41091;49.400;8.684;2023-05-10T07:27:20;2.85;;;2.45;;
55224;SDS011;41091;49.400;8.684;2023-05-10T07:29:45;4.80;;;2.55;;
55224;SDS011;41091;49.400;8.684;2023-05-10T07:32:10;2.42;;;2.28;;
55224;SDS011;41091;49.400;8.684;2023-05-10T07:34:38;5.40;;;2.38;;
55224;SDS011;41091;49.400;8.684;2023-05-10T07:37:06;3.20;;;1.98;;
55224;SDS011;41091;49.400;8.684;2023-05-10T07:39:34;1.83;;;1.73;;
55224;SDS011;41091;49.400;8.684;2023-05-10T07:42:02;2.45;;;1.90;;
55224;SDS011;41091;49.400;8.684;2023-05-10T07:44:27;3.17;;;1.85;;
55224;SDS011;41091;49.400;8.684;2023-05-10T07:46:53;3.05;;;1.65;;
55224;SDS011;41091;49.400;8.684;2023-05-10T07:49:21;2.38;;;1.80;;
55224;SDS011;41091;49.400;8.684;2023-05-10T07:51:51;6.38;;;1.40;;
55224;SDS011;41091;49.400;8.684;2023-05-10T07:54:16;1.67;;;1.58;;
55224;SDS011;41091;49.400;8.684;2023-05-10T07:56:44;5.57;;;1.48;;
55224;SDS011;41091;49.400;8.684;2023-05-10T07:59:14;1.50;;;1.48;;
55224;SDS011;41091;49.400;8.684;2023-05-10T08:01:40;1.98;;;1.88;;
55224;SDS011;41091;49.400;8.684;2023-05-10T08:04:08;1.88;;;1.77;;
55224;SDS011;41091;49.400;8.684;2023-05-10T08:06:33;1.73;;;1.63;;
55224;SDS011;41091;49.400;8.684;2023-05-10T08:09:01;3.80;;;1.67;;
55224;SDS011;41091;49.400;8.684;2023-05-10T08:11:29;4.63;;;1.67;;
55224;SDS011;41091;49.400;8.684;2023-05-10T08:13:55;3.63;;;1.77;;
55224;SDS011;41091;49.400;8.684;2023-05-10T08:16:20;1.92;;;1.33;;
55224;SDS011;41091;49.400;8.684;2023-05-10T08:18:46;3.08;;;0.90;;
55224;SDS011;41091;49.400;8.684;2023-05-10T08:21:12;5.05;;;1.17;;
55224;SDS011;41091;49.400;8.684;2023-05-10T08:23:38;4.25;;;1.10;;
55224;SDS011;41091;49.400;8.684;2023-05-10T08:26:06;1.30;;;1.20;;
55224;SDS011;41091;49.400;8.684;2023-05-10T08:28:31;4.45;;;1.00;;
55224;SDS011;41091;49.400;8.684;2023-05-10T08:30:56;0.80;;;0.80;;
55224;SDS011;41091;49.400;8.684;2023-05-10T08:33:22;1.05;;;0.80;;
55224;SDS011;41091;49.400;8.684;2023-05-10T08:35:52;2.20;;;0.93;;
55224;SDS011;41091;49.400;8.684;2023-05-10T08:38:20;4.43;;;0.88;;
55224;SDS011;41091;49.400;8.684;2023-05-10T08:40:45;1.05;;;0.95;;
55224;SDS011;41091;49.400;8.684;2023-05-10T08:43:14;5.15;;;1.10;;
55224;SDS011;41091;49.400;8.684;2023-05-10T08:45:43;0.80;;;0.80;;
55224;SDS011;41091;49.400;8.684;2023-05-10T08:48:11;2.75;;;0.70;;
55224;SDS011;41091;49.400;8.684;2023-05-10T08:50:38;0.70;;;0.70;;
55224;SDS011;41091;49.400;8.684;2023-05-10T08:53:08;1.63;;;0.90;;
55224;SDS011;41091;49.400;8.684;2023-05-10T08:55:35;1.40;;;0.73;;
55224;SDS011;41091;49.400;8.684;2023-05-10T08:58:08;2.08;;;1.13;;
55224;SDS011;41091;49.400;8.684;2023-05-10T09:00:34;4.25;;;0.60;;
55224;SDS011;41091;49.400;8.684;2023-05-10T09:03:00;1.45;;;0.70;;
55224;SDS011;41091;49.400;8.684;2023-05-10T09:05:26;1.73;;;0.65;;
55224;SDS011;41091;49.400;8.684;2023-05-10T09:07:51;3.58;;;0.70;;
55224;SDS011;41091;49.400;8.684;2023-05-10T09:10:18;0.47;;;0.47;;
55224;SDS011;41091;49.400;8.684;2023-05-10T09:12:44;2.70;;;0.80;;
55224;SDS011;41091;49.400;8.684;2023-05-10T09:15:10;3.05;;;0.70;;
55224;SDS011;41091;49.400;8.684;2023-05-10T09:17:39;0.53;;;0.53;;
55224;SDS011;41091;49.400;8.684;2023-05-10T09:20:07;2.67;;;0.60;;
55224;SDS011;41091;49.400;8.684;2023-05-10T09:22:35;2.13;;;0.60;;
55224;SDS011;41091;49.400;8.684;2023-05-10T09:25:08;1.20;;;0.57;;
55224;SDS011;41091;49.400;8.684;2023-05-10T09:27:38;3.90;;;0.73;;
55224;SDS011;41091;49.400;8.684;2023-05-10T09:30:07;3.67;;;0.70;;
55224;SDS011;41091;49.400;8.684;2023-05-10T09:32:41;0.60;;;0.60;;
55224;SDS011;41091;49.400;8.684;2023-05-10T09:35:11;3.70;;;0.65;;
55224;SDS011;41091;49.400;8.684;2023-05-10T09:37:40;0.65;;;0.60;;
55224;SDS011;41091;49.400;8.684;2023-05-10T09:40:07;5.45;;;0.60;;
55224;SDS011;41091;49.400;8.684;2023-05-10T09:42:34;1.95;;;0.70;;
55224;SDS011;41091;49.400;8.684;2023-05-10T09:45:03;4.50;;;0.80;;
55224;SDS011;41091;49.400;8.684;2023-05-10T09:47:29;3.97;;;0.80;;
55224;SDS011;41091;49.400;8.684;2023-05-10T09:49:59;4.60;;;0.70;;
55224;SDS011;41091;49.400;8.684;2023-05-10T09:55:15;0.52;;;0.52;;
55224;SDS011;41091;49.400;8.684;2023-05-10T09:57:41;1.67;;;0.50;;
55224;SDS011;41091;49.400;8.684;2023-05-10T10:00:06;1.58;;;0.60;;
55224;SDS011;41091;49.400;8.684;2023-05-10T10:02:35;0.40;;;0.40;;
55224;SDS011;41091;49.400;8.684;2023-05-10T10:05:04;0.30;;;0.30;;
55224;SDS011;41091;49.400;8.684;2023-05-10T10:07:31;1.35;;;0.60;;
55224;SDS011;41091;49.400;8.684;2023-05-10T10:09:59;3.20;;;0.40;;
55224;SDS011;41091;49.400;8.684;2023-05-10T10:12:25;0.30;;;0.30;;
55224;SDS011;41091;49.400;8.684;2023-05-10T10:14:50;2.70;;;0.60;;
55224;SDS011;41091;49.400;8.684;2023-05-10T10:17:16;1.52;;;0.38;;
55224;SDS011;41091;49.400;8.684;2023-05-10T10:19:42;2.13;;;0.40;;
55224;SDS011;41091;49.400;8.684;2023-05-10T10:22:07;1.23;;;0.40;;
55224;SDS011;41091;49.400;8.684;2023-05-10T10:24:35;0.82;;;0.55;;
55224;SDS011;41091;49.400;8.684;2023-05-10T10:35:31;3.92;;;0.50;;
55224;SDS011;41091;49.400;8.684;2023-05-10T10:37:59;4.70;;;0.90;;
55224;SDS011;41091;49.400;8.684;2023-05-10T10:40:32;0.55;;;0.50;;
55224;SDS011;41091;49.400;8.684;2023-05-10T10:46:09;0.77;;;0.52;;
55224;SDS011;41091;49.400;8.684;2023-05-10T10:48:33;0.73;;;0.60;;
55224;SDS011;41091;49.400;8.684;2023-05-10T10:50:59;0.20;;;0.20;;
55224;SDS011;41091;49.400;8.684;2023-05-10T10:53:27;2.47;;;0.80;;
55224;SDS011;41091;49.400;8.684;2023-05-10T10:56:08;1.40;;;0.63;;
55224;SDS011;41091;49.400;8.684;2023-05-10T10:58:41;1.00;;;0.55;;
55224;SDS011;41091;49.400;8.684;2023-05-10T11:01:16;1.80;;;0.40;;
55224;SDS011;41091;49.400;8.684;2023-05-10T11:06:29;3.08;;;0.65;;
55224;SDS011;41091;49.400;8.684;2023-05-10T11:08:59;5.22;;;1.35;;
55224;SDS011;41091;49.400;8.684;2023-05-10T11:11:25;10.57;;;2.20;;
55224;SDS011;41091;49.400;8.684;2023-05-10T11:13:50;4.75;;;1.10;;
55224;SDS011;41091;49.400;8.684;2023-05-10T11:16:19;0.40;;;0.40;;
55224;SDS011;41091;49.400;8.684;2023-05-10T11:18:52;2.13;;;0.93;;
55224;SDS011;41091;49.400;8.684;2023-05-10T11:21:18;23.45;;;3.95;;
55224;SDS011;41091;49.400;8.684;2023-05-10T11:26:13;0.30;;;0.30;;
55224;SDS011;41091;49.400;8.684;2023-05-10T11:28:41;0.50;;;0.50;;
55224;SDS011;41091;49.400;8.684;2023-05-10T11:31:07;0.90;;;0.30;;
55224;SDS011;41091;49.400;8.684;2023-05-10T11:33:42;1.40;;;0.52;;
55224;SDS011;41091;49.400;8.684;2023-05-10T11:36:14;13.82;;;1.08;;
55224;SDS011;41091;49.400;8.684;2023-05-10T11:38:41;11.25;;;2.03;;
55224;SDS011;41091;49.400;8.684;2023-05-10T11:41:10;1.55;;;0.73;;
55224;SDS011;41091;49.400;8.684;2023-05-10T11:43:36;1.15;;;0.40;;
55224;SDS011;41091;49.400;8.684;2023-05-10T11:48:36;3.25;;;0.77;;
55224;SDS011;41091;49.400;8.684;2023-05-10T11:51:03;0.70;;;0.40;;
55224;SDS011;41091;49.400;8.684;2023-05-10T11:53:32;1.15;;;0.50;;
55224;SDS011;41091;49.400;8.684;2023-05-10T11:56:07;1.23;;;0.40;;
55224;SDS011;41091;49.400;8.684;2023-05-10T11:58:34;3.53;;;0.50;;
55224;SDS011;41091;49.400;8.684;2023-05-10T12:01:05;1.65;;;0.40;;
55224;SDS011;41091;49.400;8.684;2023-05-10T12:03:35;2.00;;;0.45;;
55224;SDS011;41091;49.400;8.684;2023-05-10T12:06:01;1.42;;;0.30;;
55224;SDS011;41091;49.400;8.684;2023-05-10T12:08:27;2.13;;;0.30;;
55224;SDS011;41091;49.400;8.684;2023-05-10T12:11:08;3.40;;;0.80;;
55224;SDS011;41091;49.400;8.684;2023-05-10T12:13:37;1.83;;;0.40;;
55224;SDS011;41091;49.400;8.684;2023-05-10T12:16:13;1.20;;;0.38;;
55224;SDS011;41091;49.400;8.684;2023-05-10T12:18:40;4.22;;;0.40;;
55224;SDS011;41091;49.400;8.684;2023-05-10T12:21:07;5.60;;;0.77;;
55224;SDS011;41091;49.400;8.684;2023-05-10T12:23:35;3.42;;;0.52;;
55224;SDS011;41091;49.400;8.684;2023-05-10T12:26:03;2.30;;;0.70;;
55224;SDS011;41091;49.400;8.684;2023-05-10T12:28:31;2.00;;;0.68;;
55224;SDS011;41091;49.400;8.684;2023-05-10T12:31:02;1.60;;;0.50;;
55224;SDS011;41091;49.400;8.684;2023-05-10T12:33:35;2.50;;;0.40;;
55224;SDS011;41091;49.400;8.684;2023-05-10T12:36:10;2.13;;;0.80;;
55224;SDS011;41091;49.400;8.684;2023-05-10T12:38:39;3.85;;;0.50;;
55224;SDS011;41091;49.400;8.684;2023-05-10T12:41:11;3.83;;;0.47;;
55224;SDS011;41091;49.400;8.684;2023-05-10T12:46:13;0.63;;;0.50;;
55224;SDS011;41091;49.400;8.684;2023-05-10T12:48:40;0.65;;;0.50;;
55224;SDS011;41091;49.400;8.684;2023-05-10T12:51:08;1.70;;;0.60;;
55224;SDS011;41091;49.400;8.684;2023-05-10T12:53:34;3.45;;;0.55;;
55224;SDS011;41091;49.400;8.684;2023-05-10T12:56:00;1.92;;;0.60;;
55224;SDS011;41091;49.400;8.684;2023-05-10T12:58:25;7.45;;;0.60;;
55224;SDS011;41091;49.400;8.684;2023-05-10T13:00:51;1.02;;;0.40;;
55224;SDS011;41091;49.400;8.684;2023-05-10T13:03:17;6.13;;;0.95;;
55224;SDS011;41091;49.400;8.684;2023-05-10T13:05:42;2.22;;;0.70;;
55224;SDS011;41091;49.400;8.684;2023-05-10T13:08:10;6.78;;;0.85;;
55224;SDS011;41091;49.400;8.684;2023-05-10T13:10:35;1.95;;;0.55;;
55224;SDS011;41091;49.400;8.684;2023-05-10T13:13:01;2.40;;;0.50;;
55224;SDS011;41091;49.400;8.684;2023-05-10T13:15:26;2.42;;;0.57;;
55224;SDS011;41091;49.400;8.684;2023-05-10T13:17:52;1.05;;;0.55;;
55224;SDS011;41091;49.400;8.684;2023-05-10T13:20:18;2.47;;;0.47;;
55224;SDS011;41091;49.400;8.684;2023-05-10T13:22:43;1.90;;;0.60;;
55224;SDS011;41091;49.400;8.684;2023-05-10T13:25:09;0.40;;;0.40;;
55224;SDS011;41091;49.400;8.684;2023-05-10T13:27:38;2.25;;;0.45;;
55224;SDS011;41091;49.400;8.684;2023-05-10T13:30:04;0.98;;;0.30;;
55224;SDS011;41091;49.400;8.684;2023-05-10T13:32:30;0.40;;;0.40;;
55224;SDS011;41091;49.400;8.684;2023-05-10T13:34:56;0.85;;;0.30;;
55224;SDS011;41091;49.400;8.684;2023-05-10T13:37:23;4.55;;;0.60;;
55224;SDS011;41091;49.400;8.684;2023-05-10T13:39:49;2.58;;;0.50;;
55224;SDS011;41091;49.400;8.684;2023-05-10T13:42:14;3.45;;;0.50;;
55224;SDS011;41091;49.400;8.684;2023-05-10T13:44:39;4.35;;;1.35;;
55224;SDS011;41091;49.400;8.684;2023-05-10T13:47:05;3.25;;;0.60;;
55224;SDS011;41091;49.400;8.684;2023-05-10T13:49:33;3.03;;;0.30;;
55224;SDS011;41091;49.400;8.684;2023-05-10T13:52:01;4.68;;;0.30;;
55224;SDS011;41091;49.400;8.684;2023-05-10T13:54:32;0.32;;;0.32;;
55224;SDS011;41091;49.400;8.684;2023-05-10T13:57:01;1.88;;;0.52;;
55224;SDS011;41091;49.400;8.684;2023-05-10T13:59:26;2.63;;;0.40;;
55224;SDS011;41091;49.400;8.684;2023-05-10T14:01:51;5.93;;;0.45;;
55224;SDS011;41091;49.400;8.684;2023-05-10T14:04:17;0.85;;;0.30;;
55224;SDS011;41091;49.400;8.684;2023-05-10T14:06:42;1.98;;;0.60;;
55224;SDS011;41091;49.400;8.684;2023-05-10T14:09:10;2.40;;;0.50;;
55224;SDS011;41091;49.400;8.684;2023-05-10T14:11:35;1.40;;;0.47;;
55224;SDS011;41091;49.400;8.684;2023-05-10T14:14:01;1.48;;;0.52;;
55224;SDS011;41091;49.400;8.684;2023-05-10T14:16:28;4.43;;;0.57;;
55224;SDS011;41091;49.400;8.684;2023-05-10T14:18:54;1.67;;;0.30;;
55224;SDS011;41091;49.400;8.684;2023-05-10T14:21:21;3.58;;;0.20;;
55224;SDS011;41091;49.400;8.684;2023-05-10T14:23:52;6.78;;;0.50;;
55224;SDS011;41091;49.400;8.684;2023-05-10T14:26:19;0.60;;;0.30;;
55224;SDS011;41091;49.400;8.684;2023-05-10T14:28:47;2.90;;;0.30;;
55224;SDS011;41091;49.400;8.684;2023-05-10T14:31:17;1.08;;;0.45;;
55224;SDS011;41091;49.400;8.684;2023-05-10T14:33:45;0.40;;;0.20;;
55224;SDS011;41091;49.400;8.684;2023-05-10T14:36:10;1.17;;;0.40;;
55224;SDS011;41091;49.400;8.684;2023-05-10T14:38:38;2.70;;;0.30;;
55224;SDS011;41091;49.400;8.684;2023-05-10T14:41:04;0.20;;;0.20;;
55224;SDS011;41091;49.400;8.684;2023-05-10T14:43:29;2.10;;;0.30;;
55224;SDS011;41091;49.400;8.684;2023-05-10T14:45:55;5.97;;;0.40;;
55224;SDS011;41091;49.400;8.684;2023-05-10T14:48:20;1.58;;;0.28;;
55224;SDS011;41091;49.400;8.684;2023-05-10T14:50:46;0.90;;;0.20;;
55224;SDS011;41091;49.400;8.684;2023-05-10T14:53:11;2.40;;;0.40;;
55224;SDS011;41091;49.400;8.684;2023-05-10T14:55:36;0.50;;;0.30;;
55224;SDS011;41091;49.400;8.684;2023-05-10T14:58:03;3.92;;;0.30;;
55224;SDS011;41091;49.400;8.684;2023-05-10T15:00:31;0.70;;;0.30;;
55224;SDS011;41091;49.400;8.684;2023-05-10T15:02:56;0.30;;;0.30;;
55224;SDS011;41091;49.400;8.684;2023-05-10T15:05:22;6.50;;;2.28;;
55224;SDS011;41091;49.400;8.684;2023-05-10T15:07:50;0.32;;;0.32;;
55224;SDS011;41091;49.400;8.684;2023-05-10T15:10:15;1.17;;;0.55;;
55224;SDS011;41091;49.400;8.684;2023-05-10T15:12:41;1.52;;;0.40;;
55224;SDS011;41091;49.400;8.684;2023-05-10T15:15:06;3.15;;;0.40;;
55224;SDS011;41091;49.400;8.684;2023-05-10T15:17:32;0.30;;;0.30;;
55224;SDS011;41091;49.400;8.684;2023-05-10T15:19:58;0.60;;;0.40;;
55224;SDS011;41091;49.400;8.684;2023-05-10T15:22:27;10.60;;;2.95;;
55224;SDS011;41091;49.400;8.684;2023-05-10T15:24:53;0.30;;;0.30;;
55224;SDS011;41091;49.400;8.684;2023-05-10T15:27:21;2.85;;;0.38;;
55224;SDS011;41091;49.400;8.684;2023-05-10T15:29:48;4.00;;;0.30;;
55224;SDS011;41091;49.400;8.684;2023-05-10T15:32:14;0.75;;;0.30;;
55224;SDS011;41091;49.400;8.684;2023-05-10T15:34:39;4.95;;;0.40;;
55224;SDS011;41091;49.400;8.684;2023-05-10T15:37:07;1.98;;;0.55;;
55224;SDS011;41091;49.400;8.684;2023-05-10T15:39:32;0.80;;;0.40;;
55224;SDS011;41091;49.400;8.684;2023-05-10T15:41:58;1.52;;;0.35;;